sensor_id;sensor_type;location;lat;lon;timestamp;temperature;humidity
14850;DHT22;7517;48.400;11.770;2023-02-15T00:01:32;5.50;73.50
14850;DHT22;7517;48.400;11.770;2023-02-15T00:04:00;5.60;73.60
14850;DHT22;7517;48.400;11.770;2023-02-15T00:06:28;5.90;73.90
14850;DHT22;7517;48.400;11.770;2023-02-15T00:08:56;5.40;73.60
14850;DHT22;7517;48.400;11.770;2023-02-15T00:11:28;6.00;74.00
14850;DHT22;7517;48.400;11.770;2023-02-15T00:14:10;6.10;74.30
14850;DHT22;7517;48.400;11.770;2023-02-15T00:16:44;5.40;73.90
14850;DHT22;7517;48.400;11.770;2023-02-15T00:19:12;5.40;74.00
14850;DHT22;7517;48.400;11.770;2023-02-15T00:21:42;5.50;74.10
14850;DHT22;7517;48.400;11.770;2023-02-15T00:24:11;5.40;74.10
14850;DHT22;7517;48.400;11.770;2023-02-15T00:26:43;5.40;74.10
14850;DHT22;7517;48.400;11.770;2023-02-15T00:29:13;5.40;74.10
14850;DHT22;7517;48.400;11.770;2023-02-15T00:31:42;6.10;74.40
14850;DHT22;7517;48.400;11.770;2023-02-15T00:34:12;5.60;74.10
14850;DHT22;7517;48.400;11.770;2023-02-15T00:36:42;5.80;74.40
14850;DHT22;7517;48.400;11.770;2023-02-15T00:39:10;5.50;74.10
14850;DHT22;7517;48.400;11.770;2023-02-15T00:41:38;5.40;73.80
14850;DHT22;7517;48.400;11.770;2023-02-15T00:44:07;5.50;73.80
14850;DHT22;7517;48.400;11.770;2023-02-15T00:46:35;5.60;73.90
14850;DHT22;7517;48.400;11.770;2023-02-15T00:49:04;5.50;73.60
14850;DHT22;7517;48.400;11.770;2023-02-15T00:51:31;5.40;73.50
14850;DHT22;7517;48.400;11.770;2023-02-15T00:54:01;5.40;73.50
14850;DHT22;7517;48.400;11.770;2023-02-15T00:56:28;5.60;73.60
14850;DHT22;7517;48.400;11.770;2023-02-15T00:58:58;5.40;73.60
14850;DHT22;7517;48.400;11.770;2023-02-15T01:01:30;5.40;73.80
14850;DHT22;7517;48.400;11.770;2023-02-15T01:03:57;6.90;74.80
14850;DHT22;7517;48.400;11.770;2023-02-15T01:06:25;5.70;73.70
14850;DHT22;7517;48.400;11.770;2023-02-15T01:08:52;5.60;73.60
14850;DHT22;7517;48.400;11.770;2023-02-15T01:11:21;5.40;73.30
14850;DHT22;7517;48.400;11.770;2023-02-15T01:13:49;5.40;73.50
14850;DHT22;7517;48.400;11.770;2023-02-15T01:16:18;5.40;73.60
14850;DHT22;7517;48.400;11.770;2023-02-15T01:18:51;5.40;73.70
14850;DHT22;7517;48.400;11.770;2023-02-15T01:21:23;5.40;73.70
14850;DHT22;7517;48.400;11.770;2023-02-15T01:23:52;5.40;73.60
14850;DHT22;7517;48.400;11.770;2023-02-15T01:26:21;5.30;73.70
14850;DHT22;7517;48.400;11.770;2023-02-15T01:28:49;6.20;74.20
14850;DHT22;7517;48.400;11.770;2023-02-15T01:31:19;5.40;73.60
14850;DHT22;7517;48.400;11.770;2023-02-15T01:33:49;5.30;73.60
14850;DHT22;7517;48.400;11.770;2023-02-15T01:36:17;5.50;73.70
14850;DHT22;7517;48.400;11.770;2023-02-15T01:38:45;5.40;73.60
14850;DHT22;7517;48.400;11.770;2023-02-15T01:41:15;5.50;73.40
14850;DHT22;7517;48.400;11.770;2023-02-15T01:43:51;5.40;73.30
14850;DHT22;7517;48.400;11.770;2023-02-15T01:46:23;5.50;73.50
14850;DHT22;7517;48.400;11.770;2023-02-15T01:49:01;5.60;73.70
14850;DHT22;7517;48.400;11.770;2023-02-15T01:51:32;5.30;73.60
14850;DHT22;7517;48.400;11.770;2023-02-15T01:54:08;5.50;73.80
14850;DHT22;7517;48.400;11.770;2023-02-15T01:56:41;6.40;74.20
14850;DHT22;7517;48.400;11.770;2023-02-15T01:59:12;5.40;73.60
14850;DHT22;7517;48.400;11.770;2023-02-15T02:01:43;5.30;73.60
14850;DHT22;7517;48.400;11.770;2023-02-15T02:04:16;5.30;73.70
14850;DHT22;7517;48.400;11.770;2023-02-15T02:06:49;5.40;73.80
14850;DHT22;7517;48.400;11.770;2023-02-15T02:09:17;5.40;73.70
14850;DHT22;7517;48.400;11.770;2023-02-15T02:11:46;5.50;73.80
14850;DHT22;7517;48.400;11.770;2023-02-15T02:14:15;5.40;73.70
14850;DHT22;7517;48.400;11.770;2023-02-15T02:16:48;6.00;74.20
14850;DHT22;7517;48.400;11.770;2023-02-15T02:19:53;5.40;74.00
14850;DHT22;7517;48.400;11.770;2023-02-15T02:23:07;6.00;74.40
14850;DHT22;7517;48.400;11.770;2023-02-15T02:35:46;5.50;73.70
14850;DHT22;7517;48.400;11.770;2023-02-15T02:38:26;5.50;73.60
14850;DHT22;7517;48.400;11.770;2023-02-15T02:41:12;5.50;73.60
14850;DHT22;7517;48.400;11.770;2023-02-15T02:43:53;5.50;73.60
14850;DHT22;7517;48.400;11.770;2023-02-15T02:46:36;5.50;73.50
14850;DHT22;7517;48.400;11.770;2023-02-15T02:49:31;5.50;73.40
14850;DHT22;7517;48.400;11.770;2023-02-15T02:52:39;5.60;73.40
14850;DHT22;7517;48.400;11.770;2023-02-15T02:55:14;5.50;73.20
14850;DHT22;7517;48.400;11.770;2023-02-15T02:57:53;5.50;73.00
14850;DHT22;7517;48.400;11.770;2023-02-15T03:00:37;5.50;73.00
14850;DHT22;7517;48.400;11.770;2023-02-15T03:03:23;5.50;73.00
14850;DHT22;7517;48.400;11.770;2023-02-15T03:06:14;5.40;73.20
14850;DHT22;7517;48.400;11.770;2023-02-15T03:08:54;5.50;73.40
14850;DHT22;7517;48.400;11.770;2023-02-15T03:11:28;5.50;73.40
14850;DHT22;7517;48.400;11.770;2023-02-15T03:14:13;5.40;73.30
14850;DHT22;7517;48.400;11.770;2023-02-15T03:16:48;5.50;73.30
14850;DHT22;7517;48.400;11.770;2023-02-15T03:19:27;5.40;73.50
14850;DHT22;7517;48.400;11.770;2023-02-15T03:22:02;5.40;73.50
14850;DHT22;7517;48.400;11.770;2023-02-15T03:24:42;5.40;73.40
14850;DHT22;7517;48.400;11.770;2023-02-15T03:27:23;5.30;74.00
14850;DHT22;7517;48.400;11.770;2023-02-15T03:29:58;5.40;73.40
14850;DHT22;7517;48.400;11.770;2023-02-15T03:32:29;5.40;73.40
14850;DHT22;7517;48.400;11.770;2023-02-15T03:35:00;5.40;73.30
14850;DHT22;7517;48.400;11.770;2023-02-15T03:37:33;5.30;72.90
14850;DHT22;7517;48.400;11.770;2023-02-15T03:40:10;5.30;73.10
14850;DHT22;7517;48.400;11.770;2023-02-15T03:43:08;5.30;73.30
14850;DHT22;7517;48.400;11.770;2023-02-15T03:45:40;5.30;73.40
14850;DHT22;7517;48.400;11.770;2023-02-15T03:48:22;5.30;73.40
14850;DHT22;7517;48.400;11.770;2023-02-15T03:50:59;5.20;73.30
14850;DHT22;7517;48.400;11.770;2023-02-15T03:53:49;5.20;73.20
14850;DHT22;7517;48.400;11.770;2023-02-15T03:56:22;5.20;73.10
14850;DHT22;7517;48.400;11.770;2023-02-15T03:58:49;5.20;72.90
14850;DHT22;7517;48.400;11.770;2023-02-15T04:01:36;5.10;72.80
14850;DHT22;7517;48.400;11.770;2023-02-15T04:04:28;5.10;72.80
14850;DHT22;7517;48.400;11.770;2023-02-15T04:06:59;5.10;72.80
14850;DHT22;7517;48.400;11.770;2023-02-15T04:09:27;5.00;73.00
14850;DHT22;7517;48.400;11.770;2023-02-15T04:12:13;5.00;73.00
14850;DHT22;7517;48.400;11.770;2023-02-15T04:14:40;5.00;73.10
14850;DHT22;7517;48.400;11.770;2023-02-15T04:17:28;5.00;73.20
14850;DHT22;7517;48.400;11.770;2023-02-15T04:20:00;5.00;73.20
14850;DHT22;7517;48.400;11.770;2023-02-15T04:22:44;5.00;73.40
14850;DHT22;7517;48.400;11.770;2023-02-15T04:25:29;5.00;73.70
14850;DHT22;7517;48.400;11.770;2023-02-15T04:27:58;5.00;73.80
14850;DHT22;7517;48.400;11.770;2023-02-15T04:30:25;5.00;73.70
14850;DHT22;7517;48.400;11.770;2023-02-15T04:32:53;5.00;73.70
14850;DHT22;7517;48.400;11.770;2023-02-15T04:35:29;5.00;73.50
14850;DHT22;7517;48.400;11.770;2023-02-15T04:38:06;5.00;73.20
14850;DHT22;7517;48.400;11.770;2023-02-15T04:40:42;5.00;73.40
14850;DHT22;7517;48.400;11.770;2023-02-15T04:43:14;5.00;73.50
14850;DHT22;7517;48.400;11.770;2023-02-15T04:45:53;5.00;73.30
14850;DHT22;7517;48.400;11.770;2023-02-15T04:48:26;5.00;73.20
14850;DHT22;7517;48.400;11.770;2023-02-15T04:50:53;5.00;73.10
14850;DHT22;7517;48.400;11.770;2023-02-15T04:53:20;5.00;73.00
14850;DHT22;7517;48.400;11.770;2023-02-15T04:55:47;5.00;72.90
14850;DHT22;7517;48.400;11.770;2023-02-15T04:58:16;5.00;72.90
14850;DHT22;7517;48.400;11.770;2023-02-15T05:00:43;4.90;72.70
14850;DHT22;7517;48.400;11.770;2023-02-15T05:03:10;4.90;72.70
14850;DHT22;7517;48.400;11.770;2023-02-15T05:05:37;4.90;72.60
14850;DHT22;7517;48.400;11.770;2023-02-15T05:08:06;4.80;72.50
14850;DHT22;7517;48.400;11.770;2023-02-15T05:10:33;4.80;72.60
14850;DHT22;7517;48.400;11.770;2023-02-15T05:13:02;4.80;72.90
14850;DHT22;7517;48.400;11.770;2023-02-15T05:15:31;4.80;73.10
14850;DHT22;7517;48.400;11.770;2023-02-15T05:17:58;4.80;73.30
14850;DHT22;7517;48.400;11.770;2023-02-15T05:20:27;4.80;73.40
14850;DHT22;7517;48.400;11.770;2023-02-15T05:22:54;4.80;73.40
14850;DHT22;7517;48.400;11.770;2023-02-15T05:25:22;4.80;73.40
14850;DHT22;7517;48.400;11.770;2023-02-15T05:28:08;4.80;73.40
14850;DHT22;7517;48.400;11.770;2023-02-15T05:31:01;4.80;73.40
14850;DHT22;7517;48.400;11.770;2023-02-15T05:33:30;4.90;74.10
14850;DHT22;7517;48.400;11.770;2023-02-15T05:35:58;4.90;73.30
14850;DHT22;7517;48.400;11.770;2023-02-15T05:38:25;4.90;73.20
14850;DHT22;7517;48.400;11.770;2023-02-15T05:40:53;4.90;73.20
14850;DHT22;7517;48.400;11.770;2023-02-15T05:43:21;4.90;73.30
14850;DHT22;7517;48.400;11.770;2023-02-15T05:45:51;4.90;73.40
14850;DHT22;7517;48.400;11.770;2023-02-15T05:48:21;4.90;73.50
14850;DHT22;7517;48.400;11.770;2023-02-15T05:50:57;4.90;73.40
14850;DHT22;7517;48.400;11.770;2023-02-15T05:53:25;4.90;73.10
14850;DHT22;7517;48.400;11.770;2023-02-15T05:55:53;4.80;72.90
14850;DHT22;7517;48.400;11.770;2023-02-15T05:58:25;4.80;72.90
14850;DHT22;7517;48.400;11.770;2023-02-15T06:00:54;4.80;72.80
14850;DHT22;7517;48.400;11.770;2023-02-15T06:03:21;4.80;72.90
14850;DHT22;7517;48.400;11.770;2023-02-15T06:05:49;4.80;73.10
14850;DHT22;7517;48.400;11.770;2023-02-15T06:08:17;4.80;73.20
14850;DHT22;7517;48.400;11.770;2023-02-15T06:10:45;4.80;73.20
14850;DHT22;7517;48.400;11.770;2023-02-15T06:13:12;4.80;73.30
14850;DHT22;7517;48.400;11.770;2023-02-15T06:15:40;4.80;73.10
14850;DHT22;7517;48.400;11.770;2023-02-15T06:18:08;4.80;73.10
14850;DHT22;7517;48.400;11.770;2023-02-15T06:20:35;4.80;72.80
14850;DHT22;7517;48.400;11.770;2023-02-15T06:23:03;4.80;72.60
14850;DHT22;7517;48.400;11.770;2023-02-15T06:25:30;4.80;72.40
14850;DHT22;7517;48.400;11.770;2023-02-15T06:27:57;4.70;72.20
14850;DHT22;7517;48.400;11.770;2023-02-15T06:30:24;4.70;72.30
14850;DHT22;7517;48.400;11.770;2023-02-15T06:32:52;4.60;72.40
14850;DHT22;7517;48.400;11.770;2023-02-15T06:35:20;4.60;72.50
14850;DHT22;7517;48.400;11.770;2023-02-15T06:37:48;4.60;72.80
14850;DHT22;7517;48.400;11.770;2023-02-15T06:40:16;4.60;72.90
14850;DHT22;7517;48.400;11.770;2023-02-15T06:42:46;4.60;72.90
14850;DHT22;7517;48.400;11.770;2023-02-15T06:45:14;4.50;73.00
14850;DHT22;7517;48.400;11.770;2023-02-15T06:47:41;4.50;73.20
14850;DHT22;7517;48.400;11.770;2023-02-15T06:50:09;4.50;73.30
14850;DHT22;7517;48.400;11.770;2023-02-15T06:52:38;4.50;73.40
14850;DHT22;7517;48.400;11.770;2023-02-15T06:55:06;4.60;73.50
14850;DHT22;7517;48.400;11.770;2023-02-15T06:57:33;4.60;74.30
14850;DHT22;7517;48.400;11.770;2023-02-15T07:00:01;4.60;73.60
14850;DHT22;7517;48.400;11.770;2023-02-15T07:02:30;4.60;73.40
14850;DHT22;7517;48.400;11.770;2023-02-15T07:04:57;4.70;73.40
14850;DHT22;7517;48.400;11.770;2023-02-15T07:07:25;4.70;73.20
14850;DHT22;7517;48.400;11.770;2023-02-15T07:09:53;4.70;72.90
14850;DHT22;7517;48.400;11.770;2023-02-15T07:12:21;4.70;72.90
14850;DHT22;7517;48.400;11.770;2023-02-15T07:15:06;4.70;73.10
14850;DHT22;7517;48.400;11.770;2023-02-15T07:17:34;4.70;73.10
14850;DHT22;7517;48.400;11.770;2023-02-15T07:20:03;4.70;73.10
14850;DHT22;7517;48.400;11.770;2023-02-15T07:22:33;4.80;73.90
14850;DHT22;7517;48.400;11.770;2023-02-15T07:25:03;4.80;73.30
14850;DHT22;7517;48.400;11.770;2023-02-15T07:27:34;4.80;74.00
14850;DHT22;7517;48.400;11.770;2023-02-15T07:30:04;4.80;73.10
14850;DHT22;7517;48.400;11.770;2023-02-15T07:32:32;4.80;73.10
14850;DHT22;7517;48.400;11.770;2023-02-15T07:35:00;4.80;73.00
14850;DHT22;7517;48.400;11.770;2023-02-15T07:37:27;4.80;72.90
14850;DHT22;7517;48.400;11.770;2023-02-15T07:39:55;4.90;73.00
14850;DHT22;7517;48.400;11.770;2023-02-15T07:42:23;4.90;72.90
14850;DHT22;7517;48.400;11.770;2023-02-15T07:44:51;4.90;72.80
14850;DHT22;7517;48.400;11.770;2023-02-15T07:47:18;4.90;72.90
14850;DHT22;7517;48.400;11.770;2023-02-15T07:49:45;4.90;72.90
14850;DHT22;7517;48.400;11.770;2023-02-15T07:52:14;4.90;73.00
14850;DHT22;7517;48.400;11.770;2023-02-15T07:54:42;5.00;73.20
14850;DHT22;7517;48.400;11.770;2023-02-15T07:57:09;4.90;72.90
14850;DHT22;7517;48.400;11.770;2023-02-15T07:59:39;4.90;72.70
14850;DHT22;7517;48.400;11.770;2023-02-15T08:02:08;4.90;72.40
14850;DHT22;7517;48.400;11.770;2023-02-15T08:04:36;4.90;72.30
14850;DHT22;7517;48.400;11.770;2023-02-15T08:07:04;4.90;72.30
14850;DHT22;7517;48.400;11.770;2023-02-15T08:09:32;4.90;72.60
14850;DHT22;7517;48.400;11.770;2023-02-15T08:11:59;4.90;72.90
14850;DHT22;7517;48.400;11.770;2023-02-15T08:14:27;4.90;73.00
14850;DHT22;7517;48.400;11.770;2023-02-15T08:16:59;4.90;73.10
14850;DHT22;7517;48.400;11.770;2023-02-15T08:19:30;4.90;72.90
14850;DHT22;7517;48.400;11.770;2023-02-15T08:22:01;4.90;72.90
14850;DHT22;7517;48.400;11.770;2023-02-15T08:24:31;4.90;72.80
14850;DHT22;7517;48.400;11.770;2023-02-15T08:27:00;4.90;73.00
14850;DHT22;7517;48.400;11.770;2023-02-15T08:29:28;5.00;73.10
14850;DHT22;7517;48.400;11.770;2023-02-15T08:32:00;5.00;73.00
14850;DHT22;7517;48.400;11.770;2023-02-15T08:34:30;5.00;73.10
14850;DHT22;7517;48.400;11.770;2023-02-15T08:37:02;5.00;73.20
14850;DHT22;7517;48.400;11.770;2023-02-15T08:39:31;5.00;73.30
14850;DHT22;7517;48.400;11.770;2023-02-15T08:41:58;5.10;73.40
14850;DHT22;7517;48.400;11.770;2023-02-15T08:44:26;5.10;73.50
14850;DHT22;7517;48.400;11.770;2023-02-15T08:46:53;5.20;73.40
14850;DHT22;7517;48.400;11.770;2023-02-15T08:49:24;5.20;73.00
14850;DHT22;7517;48.400;11.770;2023-02-15T08:51:53;5.20;72.90
14850;DHT22;7517;48.400;11.770;2023-02-15T08:54:20;5.20;72.80
14850;DHT22;7517;48.400;11.770;2023-02-15T08:56:48;5.20;72.70
14850;DHT22;7517;48.400;11.770;2023-02-15T08:59:17;5.20;72.60
14850;DHT22;7517;48.400;11.770;2023-02-15T09:01:46;5.20;72.80
14850;DHT22;7517;48.400;11.770;2023-02-15T09:04:14;5.20;72.90
14850;DHT22;7517;48.400;11.770;2023-02-15T09:06:45;5.20;73.00
14850;DHT22;7517;48.400;11.770;2023-02-15T09:09:14;5.20;73.10
14850;DHT22;7517;48.400;11.770;2023-02-15T09:11:44;5.30;73.10
14850;DHT22;7517;48.400;11.770;2023-02-15T09:14:14;5.30;73.20
14850;DHT22;7517;48.400;11.770;2023-02-15T09:16:45;5.40;73.40
14850;DHT22;7517;48.400;11.770;2023-02-15T09:19:14;5.40;73.40
14850;DHT22;7517;48.400;11.770;2023-02-15T09:21:43;5.50;73.40
14850;DHT22;7517;48.400;11.770;2023-02-15T09:24:12;5.50;73.20
14850;DHT22;7517;48.400;11.770;2023-02-15T09:26:42;5.50;73.00
14850;DHT22;7517;48.400;11.770;2023-02-15T09:29:12;5.50;72.60
14850;DHT22;7517;48.400;11.770;2023-02-15T09:31:42;5.50;72.40
14850;DHT22;7517;48.400;11.770;2023-02-15T09:34:11;5.50;72.40
14850;DHT22;7517;48.400;11.770;2023-02-15T09:36:40;5.50;72.60
14850;DHT22;7517;48.400;11.770;2023-02-15T09:39:10;5.50;73.50
14850;DHT22;7517;48.400;11.770;2023-02-15T09:45:23;5.60;72.90
14850;DHT22;7517;48.400;11.770;2023-02-15T09:48:34;5.60;72.80
14850;DHT22;7517;48.400;11.770;2023-02-15T09:51:25;5.70;72.80
14850;DHT22;7517;48.400;11.770;2023-02-15T09:54:17;5.70;72.60
14850;DHT22;7517;48.400;11.770;2023-02-15T09:56:57;5.70;72.70
14850;DHT22;7517;48.400;11.770;2023-02-15T09:59:37;5.70;72.90
14850;DHT22;7517;48.400;11.770;2023-02-15T10:02:27;5.70;72.90
14850;DHT22;7517;48.400;11.770;2023-02-15T10:05:17;5.80;73.20
14850;DHT22;7517;48.400;11.770;2023-02-15T10:08:19;5.80;73.20
14850;DHT22;7517;48.400;11.770;2023-02-15T10:11:10;5.90;73.40
14850;DHT22;7517;48.400;11.770;2023-02-15T10:14:12;6.00;73.40
14850;DHT22;7517;48.400;11.770;2023-02-15T10:16:56;6.00;73.40
14850;DHT22;7517;48.400;11.770;2023-02-15T10:19:38;6.10;73.20
14850;DHT22;7517;48.400;11.770;2023-02-15T10:22:19;6.10;73.10
14850;DHT22;7517;48.400;11.770;2023-02-15T10:25:20;6.20;73.10
14850;DHT22;7517;48.400;11.770;2023-02-15T10:28:09;6.20;73.00
14850;DHT22;7517;48.400;11.770;2023-02-15T10:30:46;6.30;73.20
14850;DHT22;7517;48.400;11.770;2023-02-15T10:33:27;6.30;73.00
14850;DHT22;7517;48.400;11.770;2023-02-15T10:36:21;6.40;72.60
14850;DHT22;7517;48.400;11.770;2023-02-15T10:39:12;6.40;72.40
14850;DHT22;7517;48.400;11.770;2023-02-15T10:41:53;6.40;72.40
14850;DHT22;7517;48.400;11.770;2023-02-15T10:44:46;6.40;72.40
14850;DHT22;7517;48.400;11.770;2023-02-15T10:47:41;6.40;72.20
14850;DHT22;7517;48.400;11.770;2023-02-15T10:50:33;6.50;72.30
14850;DHT22;7517;48.400;11.770;2023-02-15T10:53:26;6.50;72.40
14850;DHT22;7517;48.400;11.770;2023-02-15T10:56:12;6.50;72.50
14850;DHT22;7517;48.400;11.770;2023-02-15T10:59:22;6.60;72.60
14850;DHT22;7517;48.400;11.770;2023-02-15T11:02:26;6.60;72.60
14850;DHT22;7517;48.400;11.770;2023-02-15T11:05:37;6.70;72.50
14850;DHT22;7517;48.400;11.770;2023-02-15T11:08:15;6.70;72.50
14850;DHT22;7517;48.400;11.770;2023-02-15T11:10:54;6.70;72.40
14850;DHT22;7517;48.400;11.770;2023-02-15T11:13:34;6.70;72.20
14850;DHT22;7517;48.400;11.770;2023-02-15T11:16:14;6.70;72.20
14850;DHT22;7517;48.400;11.770;2023-02-15T11:18:59;6.70;72.30
14850;DHT22;7517;48.400;11.770;2023-02-15T11:21:39;6.80;72.10
14850;DHT22;7517;48.400;11.770;2023-02-15T11:24:11;6.80;72.30
14850;DHT22;7517;48.400;11.770;2023-02-15T11:26:43;6.80;72.30
14850;DHT22;7517;48.400;11.770;2023-02-15T11:29:22;6.80;72.10
14850;DHT22;7517;48.400;11.770;2023-02-15T11:32:14;6.90;71.90
14850;DHT22;7517;48.400;11.770;2023-02-15T11:35:02;6.90;71.70
14850;DHT22;7517;48.400;11.770;2023-02-15T11:37:50;6.90;71.60
14850;DHT22;7517;48.400;11.770;2023-02-15T11:40:40;6.90;71.70
14850;DHT22;7517;48.400;11.770;2023-02-15T11:43:21;6.90;71.80
14850;DHT22;7517;48.400;11.770;2023-02-15T11:46:07;6.90;72.00
14850;DHT22;7517;48.400;11.770;2023-02-15T11:48:46;7.00;72.10
14850;DHT22;7517;48.400;11.770;2023-02-15T11:51:21;7.00;72.10
14850;DHT22;7517;48.400;11.770;2023-02-15T11:53:53;7.00;72.20
14850;DHT22;7517;48.400;11.770;2023-02-15T11:56:23;7.00;72.10
14850;DHT22;7517;48.400;11.770;2023-02-15T11:58:59;7.00;71.80
14850;DHT22;7517;48.400;11.770;2023-02-15T12:01:58;7.10;71.90
14850;DHT22;7517;48.400;11.770;2023-02-15T12:04:36;7.10;72.00
14850;DHT22;7517;48.400;11.770;2023-02-15T12:07:11;7.10;71.90
14850;DHT22;7517;48.400;11.770;2023-02-15T12:09:48;7.20;72.20
14850;DHT22;7517;48.400;11.770;2023-02-15T12:12:32;7.20;72.20
14850;DHT22;7517;48.400;11.770;2023-02-15T12:15:30;7.20;72.10
14850;DHT22;7517;48.400;11.770;2023-02-15T12:18:03;7.30;72.00
14850;DHT22;7517;48.400;11.770;2023-02-15T12:20:49;7.40;71.90
14850;DHT22;7517;48.400;11.770;2023-02-15T12:23:26;7.40;71.70
14850;DHT22;7517;48.400;11.770;2023-02-15T12:26:08;7.40;71.70
14850;DHT22;7517;48.400;11.770;2023-02-15T12:28:44;7.40;71.80
14850;DHT22;7517;48.400;11.770;2023-02-15T12:31:27;7.40;72.00
14850;DHT22;7517;48.400;11.770;2023-02-15T12:34:07;7.50;72.00
14850;DHT22;7517;48.400;11.770;2023-02-15T12:36:46;7.50;72.70
14850;DHT22;7517;48.400;11.770;2023-02-15T12:39:24;7.60;72.00
14850;DHT22;7517;48.400;11.770;2023-02-15T12:42:15;7.60;71.80
14850;DHT22;7517;48.400;11.770;2023-02-15T12:44:59;7.60;71.60
14850;DHT22;7517;48.400;11.770;2023-02-15T12:47:48;7.60;71.40
14850;DHT22;7517;48.400;11.770;2023-02-15T12:50:39;7.60;71.40
14850;DHT22;7517;48.400;11.770;2023-02-15T12:53:14;7.60;71.40
14850;DHT22;7517;48.400;11.770;2023-02-15T12:55:52;7.70;71.60
14850;DHT22;7517;48.400;11.770;2023-02-15T12:58:23;7.70;71.50
14850;DHT22;7517;48.400;11.770;2023-02-15T13:01:12;7.70;71.40
14850;DHT22;7517;48.400;11.770;2023-02-15T13:03:55;7.70;71.40
14850;DHT22;7517;48.400;11.770;2023-02-15T13:06:25;7.70;71.50
14850;DHT22;7517;48.400;11.770;2023-02-15T13:08:58;7.70;71.40
14850;DHT22;7517;48.400;11.770;2023-02-15T13:11:34;7.70;71.30
14850;DHT22;7517;48.400;11.770;2023-02-15T13:14:28;7.70;71.40
14850;DHT22;7517;48.400;11.770;2023-02-15T13:17:00;7.70;71.40
14850;DHT22;7517;48.400;11.770;2023-02-15T13:19:36;7.70;71.30
14850;DHT22;7517;48.400;11.770;2023-02-15T13:22:14;7.80;71.40
14850;DHT22;7517;48.400;11.770;2023-02-15T13:24:47;7.80;71.40
14850;DHT22;7517;48.400;11.770;2023-02-15T13:27:20;7.80;71.50
14850;DHT22;7517;48.400;11.770;2023-02-15T13:29:53;7.10;71.00
14850;DHT22;7517;48.400;11.770;2023-02-15T13:32:28;7.80;71.40
14850;DHT22;7517;48.400;11.770;2023-02-15T13:34:59;7.80;71.20
14850;DHT22;7517;48.400;11.770;2023-02-15T13:37:52;7.80;71.10
14850;DHT22;7517;48.400;11.770;2023-02-15T13:40:55;7.90;71.20
14850;DHT22;7517;48.400;11.770;2023-02-15T13:43:36;7.90;71.20
14850;DHT22;7517;48.400;11.770;2023-02-15T13:46:20;7.90;71.20
14850;DHT22;7517;48.400;11.770;2023-02-15T13:49:12;7.90;71.10
14850;DHT22;7517;48.400;11.770;2023-02-15T13:51:56;7.90;71.10
14850;DHT22;7517;48.400;11.770;2023-02-15T13:57:57;7.90;71.10
14850;DHT22;7517;48.400;11.770;2023-02-15T14:00:46;7.90;71.20
14850;DHT22;7517;48.400;11.770;2023-02-15T14:03:46;7.90;71.20
14850;DHT22;7517;48.400;11.770;2023-02-15T14:06:52;8.00;71.10
14850;DHT22;7517;48.400;11.770;2023-02-15T14:09:43;8.10;71.10
14850;DHT22;7517;48.400;11.770;2023-02-15T14:12:31;8.00;70.80
14850;DHT22;7517;48.400;11.770;2023-02-15T14:15:26;8.00;70.70
14850;DHT22;7517;48.400;11.770;2023-02-15T14:18:14;8.00;70.90
14850;DHT22;7517;48.400;11.770;2023-02-15T14:20:57;8.00;71.00
14850;DHT22;7517;48.400;11.770;2023-02-15T14:23:43;8.00;71.10
14850;DHT22;7517;48.400;11.770;2023-02-15T14:26:29;8.00;71.10
14850;DHT22;7517;48.400;11.770;2023-02-15T14:29:15;8.00;71.00
14850;DHT22;7517;48.400;11.770;2023-02-15T14:31:56;8.00;70.70
14850;DHT22;7517;48.400;11.770;2023-02-15T14:34:35;7.90;70.40
14850;DHT22;7517;48.400;11.770;2023-02-15T14:37:11;7.90;70.20
14850;DHT22;7517;48.400;11.770;2023-02-15T14:39:44;7.80;70.10
14850;DHT22;7517;48.400;11.770;2023-02-15T14:42:42;7.80;70.10
14850;DHT22;7517;48.400;11.770;2023-02-15T14:45:19;7.70;70.30
14850;DHT22;7517;48.400;11.770;2023-02-15T14:47:59;7.70;70.70
14850;DHT22;7517;48.400;11.770;2023-02-15T14:50:42;7.60;70.90
14850;DHT22;7517;48.400;11.770;2023-02-15T14:53:25;7.70;71.20
14850;DHT22;7517;48.400;11.770;2023-02-15T14:56:17;7.60;71.30
14850;DHT22;7517;48.400;11.770;2023-02-15T14:59:15;7.60;71.40
14850;DHT22;7517;48.400;11.770;2023-02-15T15:01:55;7.70;71.40
14850;DHT22;7517;48.400;11.770;2023-02-15T15:04:30;7.70;71.30
14850;DHT22;7517;48.400;11.770;2023-02-15T15:07:08;7.70;71.10
14850;DHT22;7517;48.400;11.770;2023-02-15T15:09:42;7.70;71.30
14850;DHT22;7517;48.400;11.770;2023-02-15T15:15:13;7.70;71.40
14850;DHT22;7517;48.400;11.770;2023-02-15T15:18:02;7.70;71.90
14850;DHT22;7517;48.400;11.770;2023-02-15T15:20:44;7.70;71.00
14850;DHT22;7517;48.400;11.770;2023-02-15T15:23:39;7.70;71.10
14850;DHT22;7517;48.400;11.770;2023-02-15T15:26:29;7.70;71.10
14850;DHT22;7517;48.400;11.770;2023-02-15T15:29:00;7.70;71.20
14850;DHT22;7517;48.400;11.770;2023-02-15T15:31:43;7.70;71.20
14850;DHT22;7517;48.400;11.770;2023-02-15T15:34:33;7.70;71.30
14850;DHT22;7517;48.400;11.770;2023-02-15T15:37:51;7.70;71.30
14850;DHT22;7517;48.400;11.770;2023-02-15T15:41:15;7.80;71.20
14850;DHT22;7517;48.400;11.770;2023-02-15T15:47:27;7.70;70.90
14850;DHT22;7517;48.400;11.770;2023-02-15T15:50:12;7.70;70.90
14850;DHT22;7517;48.400;11.770;2023-02-15T15:52:48;7.60;71.00
14850;DHT22;7517;48.400;11.770;2023-02-15T15:55:20;7.60;70.80
14850;DHT22;7517;48.400;11.770;2023-02-15T15:57:57;7.70;70.90
14850;DHT22;7517;48.400;11.770;2023-02-15T16:00:36;8.70;71.70
14850;DHT22;7517;48.400;11.770;2023-02-15T16:03:14;7.50;71.00
14850;DHT22;7517;48.400;11.770;2023-02-15T16:05:43;7.50;71.00
14850;DHT22;7517;48.400;11.770;2023-02-15T16:08:26;7.40;70.90
14850;DHT22;7517;48.400;11.770;2023-02-15T16:10:55;7.70;71.10
14850;DHT22;7517;48.400;11.770;2023-02-15T16:13:22;7.40;71.00
14850;DHT22;7517;48.400;11.770;2023-02-15T16:15:52;7.60;71.10
14850;DHT22;7517;48.400;11.770;2023-02-15T16:18:23;6.40;70.50
14850;DHT22;7517;48.400;11.770;2023-02-15T16:20:56;7.30;71.00
14850;DHT22;7517;48.400;11.770;2023-02-15T16:26:57;7.30;71.20
14850;DHT22;7517;48.400;11.770;2023-02-15T16:29:37;7.10;71.90
14850;DHT22;7517;48.400;11.770;2023-02-15T16:32:15;7.10;71.10
14850;DHT22;7517;48.400;11.770;2023-02-15T16:34:52;7.10;71.20
14850;DHT22;7517;48.400;11.770;2023-02-15T16:37:23;7.20;71.30
14850;DHT22;7517;48.400;11.770;2023-02-15T16:39:55;7.10;71.20
14850;DHT22;7517;48.400;11.770;2023-02-15T16:42:23;7.10;71.30
14850;DHT22;7517;48.400;11.770;2023-02-15T16:44:54;7.40;71.50
14850;DHT22;7517;48.400;11.770;2023-02-15T16:47:37;7.00;71.30
14850;DHT22;7517;48.400;11.770;2023-02-15T16:50:17;7.20;71.60
14850;DHT22;7517;48.400;11.770;2023-02-15T16:52:46;7.00;71.40
14850;DHT22;7517;48.400;11.770;2023-02-15T16:55:22;7.00;71.40
14850;DHT22;7517;48.400;11.770;2023-02-15T16:57:51;7.00;71.50
14850;DHT22;7517;48.400;11.770;2023-02-15T17:00:25;7.00;71.30
14850;DHT22;7517;48.400;11.770;2023-02-15T17:03:06;7.00;71.10
14850;DHT22;7517;48.400;11.770;2023-02-15T17:05:49;7.00;71.00
14850;DHT22;7517;48.400;11.770;2023-02-15T17:08:19;6.80;70.90
14850;DHT22;7517;48.400;11.770;2023-02-15T17:11:13;6.80;71.20